Time;durP1;ratioP1;P1;durP2;ratioP2;P2;SDS_P1;SDS_P2;PMS_P1;PMS_P2;Temp;Humidity;BMP_temperature;BMP_pressure;BME280_temperature;BME280_humidity;BME280_pressure;Samples;Min_cycle;Max_cycle;Signal;HPM_P1;HPM_P2
2021/08/27 00:00:49;;;;;;;7.90;1.70;;;;;;;;;;5031190;28;20772;-74
2021/08/27 00:03:16;;;;;;;6.30;1.53;;;;;;;;;;5029540;28;20872;-74
2021/08/27 00:05:42;;;;;;;8.50;1.67;;;;;;;;;;5028474;28;20219;-74
2021/08/27 00:08:10;;;;;;;9.20;1.90;;;;;;;;;;5030684;28;20231;-74
2021/08/27 00:10:36;;;;;;;6.90;1.40;;;;;;;;;;5030938;28;20215;-74
2021/08/27 00:13:03;;;;;;;3.03;1.10;;;;;;;;;;5030220;28;20215;-74
2021/08/27 00:15:29;;;;;;;7.40;1.60;;;;;;;;;;5029036;28;20243;-74
2021/08/27 00:17:56;;;;;;;8.33;2.03;;;;;;;;;;5032937;28;20273;-74
2021/08/27 00:20:22;;;;;;;5.87;1.50;;;;;;;;;;5030180;28;20249;-74
2021/08/27 00:22:48;;;;;;;9.63;1.93;;;;;;;;;;5029866;28;20232;-74
2021/08/27 00:25:16;;;;;;;5.70;1.40;;;;;;;;;;5029096;28;20659;-74
2021/08/27 00:27:43;;;;;;;8.10;1.63;;;;;;;;;;5030594;28;20219;-74
2021/08/27 00:30:10;;;;;;;6.20;1.80;;;;;;;;;;5029876;28;20214;-74
2021/08/27 00:32:37;;;;;;;6.23;1.80;;;;;;;;;;5031492;28;20203;-74
2021/08/27 00:35:05;;;;;;;7.73;2.13;;;;;;;;;;5028162;28;20213;-74
2021/08/27 00:37:31;;;;;;;6.30;1.53;;;;;;;;;;5031156;28;20297;-74
2021/08/27 00:39:58;;;;;;;8.50;2.10;;;;;;;;;;5029173;28;20230;-74
2021/08/27 00:42:27;;;;;;;7.13;1.90;;;;;;;;;;5029102;28;20227;-74
2021/08/27 00:44:54;;;;;;;8.63;1.57;;;;;;;;;;5032025;28;20229;-74
2021/08/27 00:47:20;;;;;;;8.57;1.53;;;;;;;;;;5030936;28;21111;-74
2021/08/27 00:49:47;;;;;;;4.17;1.43;;;;;;;;;;5031380;28;20286;-74
2021/08/27 00:52:14;;;;;;;7.67;1.30;;;;;;;;;;5028693;28;20622;-74
2021/08/27 00:54:45;;;;;;;5.83;1.60;;;;;;;;;;5030831;28;20686;-74
2021/08/27 00:57:11;;;;;;;10.07;1.93;;;;;;;;;;5028195;28;20216;-74
2021/08/27 00:59:39;;;;;;;4.90;1.20;;;;;;;;;;5031922;28;20612;-75
2021/08/27 01:02:07;;;;;;;3.87;1.20;;;;;;;;;;5030603;28;20208;-74
2021/08/27 01:04:34;;;;;;;3.37;1.87;;;;;;;;;;5031336;28;20654;-75
2021/08/27 01:07:05;;;;;;;8.43;1.30;;;;;;;;;;5031493;28;20237;-75
2021/08/27 01:09:38;;;;;;;4.37;1.37;;;;;;;;;;5032626;28;20698;-74
2021/08/27 01:12:11;;;;;;;4.47;1.43;;;;;;;;;;5028639;28;20789;-74
2021/08/27 01:14:43;;;;;;;4.40;1.67;;;;;;;;;;5029473;28;20544;-75
2021/08/27 01:17:14;;;;;;;4.53;1.50;;;;;;;;;;5030511;28;20262;-75
2021/08/27 01:20:16;;;;;;;4.73;1.10;;;;;;;;;;5032075;28;20219;-74
2021/08/27 01:23:02;;;;;;;3.47;1.10;;;;;;;;;;5028082;28;20249;-74
2021/08/27 01:25:32;;;;;;;3.50;0.80;;;;;;;;;;5029337;28;20211;-74
2021/08/27 01:28:01;;;;;;;3.73;1.10;;;;;;;;;;5027842;28;20208;-74
2021/08/27 01:30:39;;;;;;;1.83;0.90;;;;;;;;;;5028621;28;20246;-74
2021/08/27 01:33:12;;;;;;;3.50;0.90;;;;;;;;;;5029748;28;20210;-74
2021/08/27 01:35:40;;;;;;;2.03;1.03;;;;;;;;;;5031099;28;20266;-74
2021/08/27 01:38:11;;;;;;;3.20;0.90;;;;;;;;;;5027605;28;20227;-74
2021/08/27 01:40:39;;;;;;;9.07;1.30;;;;;;;;;;5027032;28;20211;-74
2021/08/27 01:43:08;;;;;;;4.60;1.10;;;;;;;;;;5029993;28;20228;-74
2021/08/27 01:45:36;;;;;;;4.23;0.80;;;;;;;;;;5027342;28;20281;-74
2021/08/27 01:48:06;;;;;;;3.93;1.20;;;;;;;;;;5030885;28;20268;-74
2021/08/27 01:50:34;;;;;;;4.23;1.10;;;;;;;;;;5029220;28;20274;-74
2021/08/27 01:53:04;;;;;;;6.47;1.23;;;;;;;;;;5028674;28;20207;-74
2021/08/27 01:55:31;;;;;;;5.10;1.40;;;;;;;;;;5027127;28;20220;-74
2021/08/27 01:57:58;;;;;;;3.40;1.30;;;;;;;;;;5029070;28;20273;-74
2021/08/27 02:00:25;;;;;;;5.90;1.40;;;;;;;;;;5029504;28;20300;-74
2021/08/27 02:02:54;;;;;;;4.53;1.20;;;;;;;;;;5030076;28;20687;-74
2021/08/27 02:05:21;;;;;;;3.20;1.37;;;;;;;;;;5030771;28;20215;-75
2021/08/27 02:07:49;;;;;;;5.27;1.30;;;;;;;;;;5028635;28;20218;-74
2021/08/27 02:10:17;;;;;;;5.07;1.37;;;;;;;;;;5028380;28;20216;-74
2021/08/27 02:12:44;;;;;;;4.17;1.60;;;;;;;;;;5028471;28;20215;-74
2021/08/27 02:15:11;;;;;;;8.63;2.10;;;;;;;;;;5027744;28;20235;-74
2021/08/27 02:17:38;;;;;;;5.90;1.53;;;;;;;;;;5029196;28;20211;-74
2021/08/27 02:20:05;;;;;;;7.47;1.93;;;;;;;;;;5026633;28;20657;-74
2021/08/27 02:22:34;;;;;;;6.93;1.67;;;;;;;;;;5024979;28;20220;-74
2021/08/27 02:25:05;;;;;;;6.67;1.47;;;;;;;;;;5028010;28;20302;-74
2021/08/27 02:27:35;;;;;;;4.70;1.37;;;;;;;;;;5025045;28;20278;-74
2021/08/27 02:30:02;;;;;;;7.40;1.43;;;;;;;;;;5026125;28;20306;-74
2021/08/27 02:32:30;;;;;;;6.80;1.90;;;;;;;;;;5028355;28;20215;-74
2021/08/27 02:35:00;;;;;;;6.77;2.13;;;;;;;;;;5031558;28;20207;-74
2021/08/27 02:37:29;;;;;;;3.67;1.60;;;;;;;;;;5027208;28;20293;-74
2021/08/27 02:39:57;;;;;;;8.30;2.00;;;;;;;;;;5025873;28;20235;-74
2021/08/27 02:42:26;;;;;;;6.93;1.67;;;;;;;;;;5027063;28;20342;-74
2021/08/27 02:44:54;;;;;;;5.47;1.70;;;;;;;;;;5028772;28;20243;-74
2021/08/27 02:47:21;;;;;;;5.47;1.60;;;;;;;;;;5026146;28;20735;-75
2021/08/27 02:49:47;;;;;;;3.07;1.33;;;;;;;;;;5027055;28;20218;-74
2021/08/27 02:52:19;;;;;;;4.20;1.70;;;;;;;;;;5026455;28;20270;-74
2021/08/27 02:54:53;;;;;;;8.30;2.23;;;;;;;;;;5027624;28;20358;-74
2021/08/27 02:57:22;;;;;;;3.10;1.20;;;;;;;;;;5025234;28;20196;-74
2021/08/27 02:59:49;;;;;;;3.30;1.33;;;;;;;;;;5028168;28;20254;-74
2021/08/27 03:02:18;;;;;;;3.80;1.67;;;;;;;;;;5025576;28;20621;-74
2021/08/27 03:04:52;;;;;;;5.57;1.70;;;;;;;;;;5027218;28;20270;-74
2021/08/27 03:07:21;;;;;;;6.70;1.60;;;;;;;;;;5026853;28;20510;-74
2021/08/27 03:09:53;;;;;;;5.60;1.50;;;;;;;;;;5029378;28;20281;-74
2021/08/27 03:12:26;;;;;;;4.43;1.70;;;;;;;;;;5026602;28;20255;-74
2021/08/27 03:14:56;;;;;;;4.03;1.73;;;;;;;;;;5026023;28;20747;-74
2021/08/27 03:17:28;;;;;;;3.20;1.53;;;;;;;;;;5027307;28;20707;-74
2021/08/27 03:19:58;;;;;;;3.60;1.67;;;;;;;;;;5026492;28;20215;-74
2021/08/27 03:22:28;;;;;;;3.73;1.50;;;;;;;;;;5027257;28;20249;-74
2021/08/27 03:24:59;;;;;;;4.93;1.57;;;;;;;;;;5023259;28;20297;-74
2021/08/27 03:27:30;;;;;;;3.63;1.43;;;;;;;;;;5023598;28;20215;-74
2021/08/27 03:30:05;;;;;;;5.73;1.27;;;;;;;;;;5024438;28;20270;-74
2021/08/27 03:32:33;;;;;;;5.80;1.43;;;;;;;;;;5027275;28;20218;-74
2021/08/27 03:35:00;;;;;;;4.20;1.70;;;;;;;;;;5025533;28;20261;-74
2021/08/27 03:37:27;;;;;;;5.87;1.63;;;;;;;;;;5026951;28;20216;-74
2021/08/27 03:39:56;;;;;;;4.03;1.60;;;;;;;;;;5028707;28;20254;-74
2021/08/27 03:42:23;;;;;;;3.77;1.17;;;;;;;;;;5027681;28;20207;-74
2021/08/27 03:44:50;;;;;;;8.40;1.20;;;;;;;;;;5026812;28;20633;-74
2021/08/27 03:47:17;;;;;;;6.10;1.27;;;;;;;;;;5025190;28;20212;-74
2021/08/27 03:49:45;;;;;;;4.53;1.03;;;;;;;;;;5028841;28;20273;-74
2021/08/27 03:52:12;;;;;;;4.43;1.30;;;;;;;;;;5025973;28;20218;-74
2021/08/27 03:54:39;;;;;;;7.17;1.40;;;;;;;;;;5025344;28;20229;-74
2021/08/27 03:57:07;;;;;;;3.50;1.20;;;;;;;;;;5027163;28;20550;-74
2021/08/27 03:59:35;;;;;;;4.77;1.33;;;;;;;;;;5028280;28;20269;-74
2021/08/27 04:02:03;;;;;;;5.80;1.20;;;;;;;;;;5024462;28;20357;-74
2021/08/27 04:04:29;;;;;;;7.00;1.93;;;;;;;;;;5025160;28;20239;-74
2021/08/27 04:06:59;;;;;;;8.73;1.20;;;;;;;;;;5027487;28;20262;-74
2021/08/27 04:09:26;;;;;;;6.57;1.10;;;;;;;;;;5030068;28;20293;-74
2021/08/27 04:11:52;;;;;;;5.40;1.17;;;;;;;;;;5032752;28;20216;-74
2021/08/27 04:14:19;;;;;;;4.57;1.17;;;;;;;;;;5029517;28;20290;-74
2021/08/27 04:16:46;;;;;;;4.07;1.27;;;;;;;;;;5029534;28;20216;-74
2021/08/27 04:19:13;;;;;;;3.63;0.93;;;;;;;;;;5029577;28;20276;-74
2021/08/27 04:21:40;;;;;;;4.83;1.10;;;;;;;;;;5031390;28;20689;-74
2021/08/27 04:24:08;;;;;;;4.60;1.33;;;;;;;;;;5028733;28;20812;-75
2021/08/27 04:26:35;;;;;;;7.47;1.40;;;;;;;;;;5028633;28;20731;-74
2021/08/27 04:29:01;;;;;;;6.93;1.10;;;;;;;;;;5029491;28;20215;-74
2021/08/27 04:31:28;;;;;;;5.70;1.30;;;;;;;;;;5028091;28;20507;-75
2021/08/27 04:33:55;;;;;;;5.13;1.50;;;;;;;;;;5027644;28;20218;-75
2021/08/27 04:36:22;;;;;;;6.27;1.43;;;;;;;;;;5028179;28;20207;-75
2021/08/27 04:38:50;;;;;;;5.43;1.50;;;;;;;;;;5028159;28;20277;-75
2021/08/27 04:41:18;;;;;;;4.60;1.43;;;;;;;;;;5028606;28;20476;-75
2021/08/27 04:43:44;;;;;;;5.20;1.00;;;;;;;;;;5024735;28;20313;-75
2021/08/27 04:46:11;;;;;;;5.03;1.50;;;;;;;;;;5027538;28;20791;-75
2021/08/27 04:48:38;;;;;;;8.60;1.77;;;;;;;;;;5027176;28;20547;-75
2021/08/27 04:51:05;;;;;;;3.87;1.30;;;;;;;;;;5029324;28;20293;-76
2021/08/27 04:53:31;;;;;;;4.30;1.03;;;;;;;;;;5029291;28;20219;-76
2021/08/27 04:55:57;;;;;;;5.33;1.00;;;;;;;;;;5029409;28;20295;-75
2021/08/27 04:58:26;;;;;;;3.60;1.30;;;;;;;;;;5028232;28;20204;-75
2021/08/27 05:00:52;;;;;;;5.93;1.40;;;;;;;;;;5027628;28;20293;-76
2021/08/27 05:03:19;;;;;;;6.63;1.27;;;;;;;;;;5026046;28;20212;-75
2021/08/27 05:05:45;;;;;;;5.23;1.43;;;;;;;;;;5027860;28;20259;-76
2021/08/27 05:08:12;;;;;;;4.03;1.10;;;;;;;;;;5030182;28;20304;-75
2021/08/27 05:10:38;;;;;;;4.87;1.33;;;;;;;;;;5028604;28;20223;-75
2021/08/27 05:13:05;;;;;;;2.80;1.10;;;;;;;;;;5030694;28;20220;-75
2021/08/27 05:15:33;;;;;;;9.30;1.83;;;;;;;;;;5029035;28;21298;-75
2021/08/27 05:17:59;;;;;;;3.57;1.13;;;;;;;;;;5025370;28;20210;-75
2021/08/27 05:20:26;;;;;;;4.00;1.60;;;;;;;;;;5028623;28;20215;-75
2021/08/27 05:22:52;;;;;;;4.57;1.27;;;;;;;;;;5027470;28;20262;-75
2021/08/27 05:25:19;;;;;;;7.97;1.70;;;;;;;;;;5031481;28;20228;-75
2021/08/27 05:27:45;;;;;;;6.07;1.17;;;;;;;;;;5028862;28;20834;-75
2021/08/27 05:30:12;;;;;;;10.70;2.30;;;;;;;;;;5026154;28;20224;-75
2021/08/27 05:32:40;;;;;;;6.87;2.13;;;;;;;;;;5028950;28;20219;-75
2021/08/27 05:35:07;;;;;;;4.37;1.30;;;;;;;;;;5025989;28;20254;-75
2021/08/27 05:37:34;;;;;;;4.23;1.30;;;;;;;;;;5024361;28;20207;-76
2021/08/27 05:40:01;;;;;;;3.60;1.23;;;;;;;;;;5026896;28;20231;-76
2021/08/27 05:42:28;;;;;;;7.50;1.77;;;;;;;;;;5028274;28;20618;-77
2021/08/27 05:44:54;;;;;;;8.73;1.50;;;;;;;;;;5029289;28;20282;-76
2021/08/27 05:47:20;;;;;;;5.93;1.20;;;;;;;;;;5030092;28;20872;-76
2021/08/27 05:49:48;;;;;;;7.67;1.67;;;;;;;;;;5027095;28;20215;-76
2021/08/27 05:52:15;;;;;;;4.07;1.40;;;;;;;;;;5028021;28;20215;-75
2021/08/27 05:54:41;;;;;;;6.60;1.23;;;;;;;;;;5028391;28;20227;-76
2021/08/27 05:57:08;;;;;;;9.17;1.53;;;;;;;;;;5029265;28;20220;-76
2021/08/27 05:59:34;;;;;;;5.30;1.33;;;;;;;;;;5027985;28;20655;-77
2021/08/27 06:02:01;;;;;;;4.53;1.17;;;;;;;;;;5028585;28;20346;-76
2021/08/27 06:04:27;;;;;;;5.13;1.03;;;;;;;;;;5029168;28;20246;-77
2021/08/27 06:06:56;;;;;;;5.13;1.13;;;;;;;;;;5028103;28;20607;-76
2021/08/27 06:09:23;;;;;;;4.67;1.60;;;;;;;;;;5028350;28;20223;-77
2021/08/27 06:11:50;;;;;;;8.90;1.57;;;;;;;;;;5029836;28;20631;-77
2021/08/27 06:14:17;;;;;;;6.33;1.60;;;;;;;;;;5025740;28;20268;-77
2021/08/27 06:16:43;;;;;;;5.23;1.30;;;;;;;;;;5025828;28;20207;-76
2021/08/27 06:19:10;;;;;;;7.43;1.13;;;;;;;;;;5025624;28;20670;-76
2021/08/27 06:21:38;;;;;;;6.27;1.30;;;;;;;;;;5024370;28;20729;-76
2021/08/27 06:24:07;;;;;;;9.43;1.50;;;;;;;;;;5029404;28;20918;-76
2021/08/27 06:26:35;;;;;;;3.00;1.40;;;;;;;;;;5026226;28;20220;-78
2021/08/27 06:29:03;;;;;;;4.90;1.93;;;;;;;;;;5025269;28;20224;-76
2021/08/27 06:31:31;;;;;;;5.73;1.33;;;;;;;;;;5028501;28;20551;-76
2021/08/27 06:33:57;;;;;;;6.87;1.90;;;;;;;;;;5026368;28;20199;-77
2021/08/27 06:36:24;;;;;;;4.73;1.77;;;;;;;;;;5024793;28;20228;-77
2021/08/27 06:38:51;;;;;;;9.60;1.90;;;;;;;;;;5028727;28;20285;-78
2021/08/27 06:41:18;;;;;;;7.63;2.33;;;;;;;;;;5027967;28;20203;-79
2021/08/27 06:43:46;;;;;;;6.80;2.03;;;;;;;;;;5025050;28;20315;-77
2021/08/27 06:46:15;;;;;;;5.30;2.37;;;;;;;;;;5027029;28;20619;-76
2021/08/27 06:48:42;;;;;;;6.97;2.37;;;;;;;;;;5027585;28;20263;-76
2021/08/27 06:51:09;;;;;;;8.47;2.20;;;;;;;;;;5025210;28;20216;-76
2021/08/27 06:53:35;;;;;;;5.90;2.20;;;;;;;;;;5025122;28;20239;-76
2021/08/27 06:56:02;;;;;;;6.90;2.17;;;;;;;;;;5024121;28;20362;-77
2021/08/27 06:58:30;;;;;;;11.70;2.30;;;;;;;;;;5025797;28;20211;-77
2021/08/27 07:00:57;;;;;;;5.43;2.33;;;;;;;;;;5024463;28;20339;-77
2021/08/27 07:03:25;;;;;;;5.33;1.87;;;;;;;;;;5023877;28;20536;-77
2021/08/27 07:05:52;;;;;;;6.33;1.90;;;;;;;;;;5025369;28;20707;-76
2021/08/27 07:08:19;;;;;;;4.20;1.27;;;;;;;;;;5026652;28;20613;-75
2021/08/27 07:10:45;;;;;;;5.40;1.80;;;;;;;;;;5024465;28;20214;-75
2021/08/27 07:13:12;;;;;;;3.90;2.00;;;;;;;;;;5024128;28;20215;-74
2021/08/27 07:15:41;;;;;;;2.93;1.20;;;;;;;;;;5024052;28;20228;-74
2021/08/27 07:18:08;;;;;;;4.97;1.70;;;;;;;;;;5025182;28;20953;-75
2021/08/27 07:20:34;;;;;;;7.73;2.40;;;;;;;;;;5025842;28;20226;-75
2021/08/27 07:23:01;;;;;;;6.87;1.90;;;;;;;;;;5024714;28;20216;-74
2021/08/27 07:25:27;;;;;;;5.80;1.60;;;;;;;;;;5022544;28;20231;-74
2021/08/27 07:27:54;;;;;;;5.93;2.10;;;;;;;;;;5022719;28;20247;-74
2021/08/27 07:30:20;;;;;;;6.97;2.37;;;;;;;;;;5025750;28;20216;-74
2021/08/27 07:32:48;;;;;;;6.20;2.47;;;;;;;;;;5025502;28;20222;-74
2021/08/27 07:35:14;;;;;;;5.97;1.73;;;;;;;;;;5026705;28;20277;-74
2021/08/27 07:37:42;;;;;;;6.87;2.00;;;;;;;;;;5023696;28;20226;-73
2021/08/27 07:40:11;;;;;;;3.57;1.57;;;;;;;;;;5024326;28;20229;-74
2021/08/27 07:42:37;;;;;;;4.43;1.23;;;;;;;;;;5025526;28;20220;-74
2021/08/27 07:45:05;;;;;;;5.20;1.47;;;;;;;;;;5029918;28;20330;-75
2021/08/27 07:47:31;;;;;;;3.63;1.50;;;;;;;;;;5028133;28;20214;-73
2021/08/27 07:49:59;;;;;;;5.97;1.73;;;;;;;;;;5029040;28;20319;-74
2021/08/27 07:52:26;;;;;;;5.33;1.50;;;;;;;;;;5029755;28;20218;-74
2021/08/27 07:54:52;;;;;;;4.83;1.67;;;;;;;;;;5027820;28;20283;-74
2021/08/27 07:57:18;;;;;;;4.90;1.43;;;;;;;;;;5026572;28;20215;-74
2021/08/27 07:59:45;;;;;;;9.40;1.90;;;;;;;;;;5029121;28;20245;-74
2021/08/27 08:02:14;;;;;;;4.87;1.80;;;;;;;;;;5027863;28;20628;-74
2021/08/27 08:04:40;;;;;;;4.87;1.40;;;;;;;;;;5027551;28;20305;-74
2021/08/27 08:07:08;;;;;;;7.20;1.70;;;;;;;;;;5026433;28;20218;-73
2021/08/27 08:09:34;;;;;;;6.03;2.03;;;;;;;;;;5026878;28;20265;-74
2021/08/27 08:12:01;;;;;;;4.50;1.70;;;;;;;;;;5027558;28;20285;-74
2021/08/27 08:14:27;;;;;;;5.00;2.20;;;;;;;;;;5029632;28;20229;-74
2021/08/27 08:16:53;;;;;;;9.97;2.30;;;;;;;;;;5027674;28;20241;-74
2021/08/27 08:19:20;;;;;;;8.33;2.10;;;;;;;;;;5027677;28;20221;-74
2021/08/27 08:21:47;;;;;;;12.23;2.53;;;;;;;;;;5025127;28;20222;-74
2021/08/27 08:24:15;;;;;;;6.07;1.80;;;;;;;;;;5028800;28;20627;-74
2021/08/27 08:26:41;;;;;;;8.67;2.20;;;;;;;;;;5027903;28;20247;-74
2021/08/27 08:29:08;;;;;;;9.50;1.90;;;;;;;;;;5027350;28;20218;-74
2021/08/27 08:31:34;;;;;;;6.07;2.40;;;;;;;;;;5028293;28;20223;-74
2021/08/27 08:34:01;;;;;;;8.90;2.23;;;;;;;;;;5028115;28;20214;-75
2021/08/27 08:36:27;;;;;;;8.87;2.20;;;;;;;;;;5027585;28;20210;-75
2021/08/27 08:38:53;;;;;;;12.80;2.67;;;;;;;;;;5026417;28;20229;-74
2021/08/27 08:41:23;;;;;;;7.33;2.73;;;;;;;;;;5028434;28;20275;-74
2021/08/27 08:43:50;;;;;;;7.50;2.70;;;;;;;;;;5027962;28;20718;-74
2021/08/27 08:46:17;;;;;;;8.63;2.63;;;;;;;;;;5027776;28;20239;-73
2021/08/27 08:48:45;;;;;;;9.67;3.20;;;;;;;;;;5027170;28;20245;-74
2021/08/27 08:51:12;;;;;;;7.90;2.67;;;;;;;;;;5027438;28;20644;-74
2021/08/27 08:53:40;;;;;;;10.37;2.77;;;;;;;;;;5027180;28;20243;-74
2021/08/27 08:56:10;;;;;;;6.73;2.80;;;;;;;;;;5025284;28;20213;-74
2021/08/27 08:58:38;;;;;;;13.40;3.70;;;;;;;;;;5028695;28;20214;-74
2021/08/27 09:01:05;;;;;;;6.53;2.80;;;;;;;;;;5026086;28;20724;-75
2021/08/27 09:03:31;;;;;;;13.57;3.80;;;;;;;;;;5028907;28;20213;-74
2021/08/27 09:05:58;;;;;;;12.87;3.70;;;;;;;;;;5029090;28;20239;-76
2021/08/27 09:08:37;;;;;;;9.10;2.63;;;;;;;;;;5027896;28;20247;-75
2021/08/27 09:11:14;;;;;;;8.70;2.73;;;;;;;;;;5026295;28;20211;-75
2021/08/27 09:13:42;;;;;;;8.47;2.33;;;;;;;;;;5027664;28;20328;-75
2021/08/27 09:16:10;;;;;;;7.80;2.10;;;;;;;;;;5026145;28;20643;-74
2021/08/27 09:18:38;;;;;;;8.80;2.23;;;;;;;;;;5027629;28;20277;-75
2021/08/27 09:21:26;;;;;;;6.30;1.57;;;;;;;;;;5026105;28;20628;-74
2021/08/27 09:24:12;;;;;;;6.83;1.50;;;;;;;;;;5026720;28;20485;-73
2021/08/27 09:26:38;;;;;;;6.47;1.73;;;;;;;;;;5026517;28;20234;-73
2021/08/27 09:29:06;;;;;;;10.10;1.87;;;;;;;;;;5025514;28;20784;-73
2021/08/27 09:31:33;;;;;;;4.73;1.67;;;;;;;;;;5026807;28;20215;-73
2021/08/27 09:33:59;;;;;;;5.53;1.63;;;;;;;;;;5027509;28;20213;-73
2021/08/27 09:36:26;;;;;;;3.13;1.77;;;;;;;;;;5024643;28;20211;-73
2021/08/27 09:39:01;;;;;;;6.63;1.77;;;;;;;;;;5027216;28;20228;-73
2021/08/27 09:41:27;;;;;;;5.40;1.53;;;;;;;;;;5026055;28;20207;-71
2021/08/27 09:43:59;;;;;;;4.90;1.53;;;;;;;;;;5024337;28;20207;-72
2021/08/27 09:46:34;;;;;;;7.87;1.63;;;;;;;;;;5024897;28;20219;-72
2021/08/27 09:49:03;;;;;;;5.40;1.97;;;;;;;;;;5026114;28;20205;-71
2021/08/27 09:51:43;;;;;;;6.93;1.77;;;;;;;;;;5027711;28;20217;-72
2021/08/27 09:54:10;;;;;;;6.33;1.67;;;;;;;;;;5025305;28;20234;-70
2021/08/27 09:56:47;;;;;;;8.17;1.77;;;;;;;;;;5023678;28;20285;-71
2021/08/27 09:59:14;;;;;;;5.20;1.73;;;;;;;;;;5026715;28;20225;-71
2021/08/27 10:01:47;;;;;;;5.33;1.60;;;;;;;;;;5027016;28;20229;-71
2021/08/27 10:04:14;;;;;;;5.50;1.77;;;;;;;;;;5025719;28;20218;-73
2021/08/27 10:06:43;;;;;;;6.20;2.13;;;;;;;;;;5023978;28;20231;-73
2021/08/27 10:09:10;;;;;;;6.20;1.60;;;;;;;;;;5025876;28;20234;-73
2021/08/27 10:11:37;;;;;;;5.77;1.87;;;;;;;;;;5024046;28;20622;-73
2021/08/27 10:14:03;;;;;;;6.50;2.37;;;;;;;;;;5026356;28;20238;-72
2021/08/27 10:16:31;;;;;;;6.87;2.10;;;;;;;;;;5024999;28;20204;-72
2021/08/27 10:19:00;;;;;;;6.67;1.97;;;;;;;;;;5025529;28;20245;-73
2021/08/27 10:21:27;;;;;;;8.67;2.30;;;;;;;;;;5024486;28;20269;-73
2021/08/27 10:23:54;;;;;;;5.27;2.17;;;;;;;;;;5025998;28;20690;-72
2021/08/27 10:26:22;;;;;;;11.13;2.57;;;;;;;;;;5025780;28;20755;-71
2021/08/27 10:28:52;;;;;;;5.60;2.23;;;;;;;;;;5025808;28;20226;-72
2021/08/27 10:31:19;;;;;;;5.97;2.13;;;;;;;;;;5024717;28;20222;-71
2021/08/27 10:34:05;;;;;;;8.03;2.13;;;;;;;;;;5025774;28;20206;-71
2021/08/27 10:36:46;;;;;;;5.07;2.03;;;;;;;;;;5024943;28;20646;-71
2021/08/27 10:39:32;;;;;;;8.20;2.97;;;;;;;;;;5025297;28;20237;-71
2021/08/27 10:41:59;;;;;;;9.30;2.70;;;;;;;;;;5024611;28;20273;-71
2021/08/27 10:44:47;;;;;;;6.60;2.30;;;;;;;;;;5024325;28;20208;-71
2021/08/27 10:47:14;;;;;;;12.00;2.77;;;;;;;;;;5025890;28;20299;-72
2021/08/27 10:49:56;;;;;;;9.93;2.53;;;;;;;;;;5025935;28;20295;-72
2021/08/27 10:52:25;;;;;;;8.40;2.40;;;;;;;;;;5023647;28;20216;-71
2021/08/27 10:55:12;;;;;;;8.90;2.67;;;;;;;;;;5025571;28;20289;-71
2021/08/27 10:57:48;;;;;;;14.97;2.50;;;;;;;;;;5026265;28;20547;-71
2021/08/27 11:00:29;;;;;;;11.87;3.07;;;;;;;;;;5023710;28;20256;-73
2021/08/27 11:02:55;;;;;;;10.97;3.13;;;;;;;;;;5026033;28;20717;-71
2021/08/27 11:05:34;;;;;;;10.10;3.33;;;;;;;;;;5026560;28;20697;-71
2021/08/27 11:08:02;;;;;;;11.97;2.73;;;;;;;;;;5026499;28;21167;-72
2021/08/27 11:10:29;;;;;;;9.13;2.80;;;;;;;;;;5027114;28;20218;-72
2021/08/27 11:12:59;;;;;;;10.00;3.07;;;;;;;;;;5024859;28;20211;-72
2021/08/27 11:15:29;;;;;;;6.13;2.20;;;;;;;;;;5026302;28;20234;-72
2021/08/27 11:18:25;;;;;;;7.07;2.20;;;;;;;;;;5028830;28;21218;-71
2021/08/27 11:20:54;;;;;;;6.50;2.37;;;;;;;;;;5026649;28;20303;-71
2021/08/27 11:23:21;;;;;;;4.97;2.50;;;;;;;;;;5028168;28;20301;-72
2021/08/27 11:26:08;;;;;;;9.37;2.43;;;;;;;;;;5030697;28;20231;-72
2021/08/27 11:28:35;;;;;;;6.63;2.57;;;;;;;;;;5023808;28;20203;-72
2021/08/27 11:31:04;;;;;;;7.07;2.90;;;;;;;;;;5028038;28;20212;-71
2021/08/27 11:33:49;;;;;;;9.57;2.87;;;;;;;;;;5027931;28;20661;-72
2021/08/27 11:36:18;;;;;;;7.97;2.50;;;;;;;;;;5030449;28;20202;-73
2021/08/27 11:38:51;;;;;;;7.13;2.73;;;;;;;;;;5024836;28;20234;-72
2021/08/27 11:41:18;;;;;;;9.67;2.47;;;;;;;;;;5028246;28;20232;-72
2021/08/27 11:43:46;;;;;;;8.63;3.60;;;;;;;;;;5030028;28;20348;-72
2021/08/27 11:46:18;;;;;;;6.20;2.87;;;;;;;;;;5027817;28;20292;-71
2021/08/27 11:48:50;;;;;;;8.67;3.30;;;;;;;;;;5027720;28;20204;-72
2021/08/27 11:51:27;;;;;;;10.73;3.30;;;;;;;;;;5029223;28;20304;-72
2021/08/27 11:53:53;;;;;;;8.53;3.20;;;;;;;;;;5026547;28;20242;-72
2021/08/27 11:56:22;;;;;;;11.33;2.77;;;;;;;;;;5028376;28;20219;-72
2021/08/27 11:58:49;;;;;;;9.67;2.80;;;;;;;;;;5028657;28;20282;-72
2021/08/27 12:01:24;;;;;;;10.97;3.37;;;;;;;;;;5027889;28;20254;-72
2021/08/27 12:03:50;;;;;;;10.00;2.90;;;;;;;;;;5029426;28;20209;-73
2021/08/27 12:06:21;;;;;;;15.00;3.67;;;;;;;;;;5027986;28;20268;-73
2021/08/27 12:08:48;;;;;;;15.00;3.70;;;;;;;;;;5025997;28;20279;-73
2021/08/27 12:11:15;;;;;;;7.20;2.40;;;;;;;;;;5030344;28;20583;-73
2021/08/27 12:13:51;;;;;;;7.67;2.73;;;;;;;;;;5029552;28;20230;-73
2021/08/27 12:16:19;;;;;;;3.93;1.73;;;;;;;;;;5027936;28;20212;-71
2021/08/27 12:18:49;;;;;;;5.63;1.93;;;;;;;;;;5028321;28;20216;-71
2021/08/27 12:21:21;;;;;;;7.47;2.13;;;;;;;;;;5028701;28;20218;-71
2021/08/27 12:23:57;;;;;;;10.67;2.70;;;;;;;;;;5028553;28;20233;-71
2021/08/27 12:26:24;;;;;;;7.50;3.27;;;;;;;;;;5030243;28;20229;-71
2021/08/27 12:28:50;;;;;;;9.20;2.87;;;;;;;;;;5028210;28;20228;-71
2021/08/27 12:31:17;;;;;;;8.37;3.07;;;;;;;;;;5028874;28;20272;-71
2021/08/27 12:33:43;;;;;;;10.80;2.93;;;;;;;;;;5028280;28;20299;-71
2021/08/27 12:36:12;;;;;;;9.30;2.80;;;;;;;;;;5030500;28;20219;-72
2021/08/27 12:38:41;;;;;;;10.27;2.43;;;;;;;;;;5028481;28;20238;-71
2021/08/27 12:41:15;;;;;;;6.00;2.20;;;;;;;;;;5028565;28;20218;-71
2021/08/27 12:43:42;;;;;;;6.20;2.20;;;;;;;;;;5026169;28;20703;-71
2021/08/27 12:46:09;;;;;;;6.10;2.20;;;;;;;;;;5028277;28;20225;-71
2021/08/27 12:48:35;;;;;;;7.90;2.60;;;;;;;;;;5027121;28;20211;-71
2021/08/27 12:51:04;;;;;;;10.50;2.60;;;;;;;;;;5027824;28;20232;-71
2021/08/27 12:53:33;;;;;;;8.53;2.10;;;;;;;;;;5029606;28;20241;-72
2021/08/27 12:56:09;;;;;;;6.17;2.73;;;;;;;;;;5027270;28;20239;-73
2021/08/27 12:58:36;;;;;;;8.17;2.67;;;;;;;;;;5026635;28;20218;-73
2021/08/27 13:01:16;;;;;;;7.97;2.90;;;;;;;;;;5027289;28;20241;-72
2021/08/27 13:03:43;;;;;;;6.07;2.20;;;;;;;;;;5027532;28;21505;-71
2021/08/27 13:06:31;;;;;;;7.27;2.30;;;;;;;;;;5026788;28;20233;-71
2021/08/27 13:08:58;;;;;;;6.13;2.10;;;;;;;;;;5026754;28;20230;-70
2021/08/27 13:11:26;;;;;;;5.40;1.80;;;;;;;;;;5029464;28;20262;-70
2021/08/27 13:13:54;;;;;;;4.50;1.87;;;;;;;;;;5027809;28;20241;-70
2021/08/27 13:16:20;;;;;;;9.40;2.07;;;;;;;;;;5024640;28;20699;-71
2021/08/27 13:18:49;;;;;;;7.27;2.10;;;;;;;;;;5027217;28;20211;-70
2021/08/27 13:21:18;;;;;;;4.03;2.00;;;;;;;;;;5026636;28;20219;-71
2021/08/27 13:23:45;;;;;;;8.87;2.27;;;;;;;;;;5026167;28;20231;-71
2021/08/27 13:26:17;;;;;;;9.87;2.30;;;;;;;;;;5025779;28;20219;-71
2021/08/27 13:28:45;;;;;;;4.50;1.47;;;;;;;;;;5023018;28;20207;-71
2021/08/27 13:31:11;;;;;;;6.63;2.27;;;;;;;;;;5026617;28;20212;-71
2021/08/27 13:33:38;;;;;;;7.20;1.97;;;;;;;;;;5026012;28;20273;-71
2021/08/27 13:36:04;;;;;;;6.73;2.20;;;;;;;;;;5025430;28;20580;-71
2021/08/27 13:38:31;;;;;;;8.20;2.13;;;;;;;;;;5023120;28;20231;-72
2021/08/27 13:40:57;;;;;;;6.97;3.10;;;;;;;;;;5025507;28;20211;-72
2021/08/27 13:43:24;;;;;;;7.23;2.23;;;;;;;;;;5025489;28;20219;-72
2021/08/27 13:45:51;;;;;;;8.13;2.57;;;;;;;;;;5024721;28;20222;-74
2021/08/27 13:48:18;;;;;;;10.20;2.87;;;;;;;;;;5027517;28;20281;-72
2021/08/27 13:50:44;;;;;;;12.87;3.00;;;;;;;;;;5025840;28;20209;-71
2021/08/27 13:53:11;;;;;;;11.07;2.77;;;;;;;;;;5023660;28;20778;-71
2021/08/27 13:55:37;;;;;;;9.13;3.03;;;;;;;;;;5027337;28;20223;-72
2021/08/27 13:58:04;;;;;;;8.17;2.70;;;;;;;;;;5027835;28;20207;-72
2021/08/27 14:00:30;;;;;;;6.03;2.50;;;;;;;;;;5025627;28;20327;-72
2021/08/27 14:02:58;;;;;;;13.10;2.80;;;;;;;;;;5026230;28;20223;-73
2021/08/27 14:05:26;;;;;;;12.00;2.70;;;;;;;;;;5028855;28;20219;-73
2021/08/27 14:07:52;;;;;;;7.23;2.67;;;;;;;;;;5026835;28;20650;-72
2021/08/27 14:10:19;;;;;;;10.77;3.20;;;;;;;;;;5027201;28;20256;-73
2021/08/27 14:12:45;;;;;;;8.50;2.90;;;;;;;;;;5027495;28;20217;-73
2021/08/27 14:15:13;;;;;;;9.33;2.13;;;;;;;;;;5024480;28;20232;-72
2021/08/27 14:17:39;;;;;;;10.97;2.63;;;;;;;;;;5027088;28;20653;-73
2021/08/27 14:20:08;;;;;;;7.17;2.37;;;;;;;;;;5027892;28;20211;-73
2021/08/27 14:22:35;;;;;;;7.50;2.80;;;;;;;;;;5026210;28;20211;-73
2021/08/27 14:25:02;;;;;;;7.43;2.20;;;;;;;;;;5025468;28;20230;-72
2021/08/27 14:27:28;;;;;;;11.10;2.73;;;;;;;;;;5027731;28;20363;-72
2021/08/27 14:30:01;;;;;;;10.77;2.70;;;;;;;;;;5025230;28;20249;-71
2021/08/27 14:32:28;;;;;;;9.43;2.60;;;;;;;;;;5026849;28;20328;-72
2021/08/27 14:34:55;;;;;;;8.63;2.70;;;;;;;;;;5024717;28;20210;-73
2021/08/27 14:37:23;;;;;;;8.57;2.13;;;;;;;;;;5023656;28;20242;-72
2021/08/27 14:39:49;;;;;;;11.00;2.83;;;;;;;;;;5024231;28;20237;-73
2021/08/27 14:42:15;;;;;;;7.10;2.80;;;;;;;;;;5023113;28;20650;-73
2021/08/27 14:44:42;;;;;;;7.40;2.50;;;;;;;;;;5027987;28;20264;-73
2021/08/27 14:47:08;;;;;;;8.90;2.40;;;;;;;;;;5025753;28;20250;-73
2021/08/27 14:49:35;;;;;;;7.10;2.53;;;;;;;;;;5024123;28;20215;-73